sensor_id;sensor_type;location;lat;lon;timestamp;temperature;humidity
55711;DHT22;41612;51.994;5.880;2023-04-07T09:07:41;11.40;72.70
55711;DHT22;41612;51.994;5.880;2023-04-07T09:10:11;11.30;72.20
55711;DHT22;41612;51.994;5.880;2023-04-07T09:12:37;11.30;72.40
55711;DHT22;41612;51.994;5.880;2023-04-07T09:15:06;11.30;73.60
55711;DHT22;41612;51.994;5.880;2023-04-07T09:17:32;11.30;72.80
55711;DHT22;41612;51.994;5.880;2023-04-07T09:19:59;11.30;72.50
55711;DHT22;41612;51.994;5.880;2023-04-07T09:22:40;11.40;72.00
55711;DHT22;41612;51.994;5.880;2023-04-07T09:25:17;11.50;71.90
55711;DHT22;41612;51.994;5.880;2023-04-07T09:28:03;11.60;73.00
55711;DHT22;41612;51.994;5.880;2023-04-07T09:30:30;11.60;73.40
55711;DHT22;41612;51.994;5.880;2023-04-07T09:32:57;11.50;72.80
55711;DHT22;41612;51.994;5.880;2023-04-07T09:35:23;11.50;71.60
55711;DHT22;41612;51.994;5.880;2023-04-07T09:38:08;11.50;71.50
55711;DHT22;41612;51.994;5.880;2023-04-07T09:40:37;11.50;71.80
55711;DHT22;41612;51.994;5.880;2023-04-07T09:43:03;11.50;72.60
55711;DHT22;41612;51.994;5.880;2023-04-07T09:45:32;11.40;71.80
55711;DHT22;41612;51.994;5.880;2023-04-07T09:48:04;11.50;71.40
55711;DHT22;41612;51.994;5.880;2023-04-07T09:50:35;11.50;71.10
55711;DHT22;41612;51.994;5.880;2023-04-07T09:53:01;11.50;71.50
55711;DHT22;41612;51.994;5.880;2023-04-07T09:55:29;11.70;71.40
55711;DHT22;41612;51.994;5.880;2023-04-07T09:57:55;11.70;71.10
55711;DHT22;41612;51.994;5.880;2023-04-07T10:00:22;11.90;70.00
55711;DHT22;41612;51.994;5.880;2023-04-07T10:02:48;12.00;70.00
55711;DHT22;41612;51.994;5.880;2023-04-07T10:05:16;12.00;69.80
55711;DHT22;41612;51.994;5.880;2023-04-07T10:07:42;11.90;69.60
55711;DHT22;41612;51.994;5.880;2023-04-07T10:10:08;11.90;69.50
55711;DHT22;41612;51.994;5.880;2023-04-07T10:12:36;11.80;70.40
55711;DHT22;41612;51.994;5.880;2023-04-07T10:15:03;11.70;70.80
55711;DHT22;41612;51.994;5.880;2023-04-07T10:17:32;11.60;70.80
55711;DHT22;41612;51.994;5.880;2023-04-07T10:20:01;11.50;72.10
55711;DHT22;41612;51.994;5.880;2023-04-07T10:22:31;11.40;72.20
55711;DHT22;41612;51.994;5.880;2023-04-07T10:25:01;11.40;72.50
55711;DHT22;41612;51.994;5.880;2023-04-07T10:28:13;11.50;72.20
55711;DHT22;41612;51.994;5.880;2023-04-07T10:30:25;11.50;72.40
55711;DHT22;41612;51.994;5.880;2023-04-07T10:32:53;11.60;72.00
55711;DHT22;41612;51.994;5.880;2023-04-07T10:35:19;11.70;72.30
55711;DHT22;41612;51.994;5.880;2023-04-07T10:40:33;11.80;71.80
55711;DHT22;41612;51.994;5.880;2023-04-07T10:43:00;11.80;70.80
55711;DHT22;41612;51.994;5.880;2023-04-07T10:48:17;11.70;70.60
55711;DHT22;41612;51.994;5.880;2023-04-07T10:59:23;11.70;70.80
55711;DHT22;41612;51.994;5.880;2023-04-07T11:04:39;11.80;71.40
55711;DHT22;41612;51.994;5.880;2023-04-07T11:07:06;11.90;72.70
55711;DHT22;41612;51.994;5.880;2023-04-07T11:09:31;12.00;72.30
55711;DHT22;41612;51.994;5.880;2023-04-07T11:11:57;12.20;71.50
55711;DHT22;41612;51.994;5.880;2023-04-07T11:14:30;12.20;71.10
55711;DHT22;41612;51.994;5.880;2023-04-07T11:16:58;12.20;71.40
55711;DHT22;41612;51.994;5.880;2023-04-07T11:19:24;12.20;70.70
55711;DHT22;41612;51.994;5.880;2023-04-07T11:21:49;12.20;71.40
55711;DHT22;41612;51.994;5.880;2023-04-07T11:24:34;12.30;70.10
55711;DHT22;41612;51.994;5.880;2023-04-07T11:27:03;12.20;69.80
55711;DHT22;41612;51.994;5.880;2023-04-07T11:29:33;12.20;69.80
55711;DHT22;41612;51.994;5.880;2023-04-07T11:32:00;12.20;69.50
55711;DHT22;41612;51.994;5.880;2023-04-07T11:34:34;12.30;69.70
55711;DHT22;41612;51.994;5.880;2023-04-07T11:37:23;12.20;69.60
55711;DHT22;41612;51.994;5.880;2023-04-07T11:39:58;12.20;70.00
55711;DHT22;41612;51.994;5.880;2023-04-07T11:42:35;12.20;69.70
55711;DHT22;41612;51.994;5.880;2023-04-07T11:45:01;12.10;69.80
55711;DHT22;41612;51.994;5.880;2023-04-07T11:47:53;12.00;70.10
55711;DHT22;41612;51.994;5.880;2023-04-07T11:50:39;11.90;70.50
55711;DHT22;41612;51.994;5.880;2023-04-07T11:53:05;11.80;70.90
55711;DHT22;41612;51.994;5.880;2023-04-07T11:55:31;11.80;71.00
55711;DHT22;41612;51.994;5.880;2023-04-07T11:58:06;12.00;70.50
55711;DHT22;41612;51.994;5.880;2023-04-07T12:00:35;12.10;70.90
55711;DHT22;41612;51.994;5.880;2023-04-07T12:03:10;12.20;70.80
55711;DHT22;41612;51.994;5.880;2023-04-07T12:05:43;12.20;70.30
55711;DHT22;41612;51.994;5.880;2023-04-07T12:08:09;12.20;70.20
55711;DHT22;41612;51.994;5.880;2023-04-07T12:10:34;12.10;70.20
55711;DHT22;41612;51.994;5.880;2023-04-07T12:13:05;12.00;70.60
55711;DHT22;41612;51.994;5.880;2023-04-07T12:15:35;12.00;70.80
55711;DHT22;41612;51.994;5.880;2023-04-07T12:18:03;12.00;70.80
55711;DHT22;41612;51.994;5.880;2023-04-07T12:20:30;12.00;71.60
55711;DHT22;41612;51.994;5.880;2023-04-07T12:23:07;12.00;71.30
55711;DHT22;41612;51.994;5.880;2023-04-07T12:25:36;12.10;71.60
55711;DHT22;41612;51.994;5.880;2023-04-07T12:28:02;12.20;70.80
55711;DHT22;41612;51.994;5.880;2023-04-07T12:30:28;12.30;70.10
55711;DHT22;41612;51.994;5.880;2023-04-07T12:32:54;12.40;70.40
55711;DHT22;41612;51.994;5.880;2023-04-07T12:35:20;12.50;69.80
55711;DHT22;41612;51.994;5.880;2023-04-07T12:37:47;12.50;69.90
55711;DHT22;41612;51.994;5.880;2023-04-07T12:40:20;12.50;70.90
55711;DHT22;41612;51.994;5.880;2023-04-07T12:42:49;12.40;71.70
55711;DHT22;41612;51.994;5.880;2023-04-07T12:45:15;12.30;70.40
55711;DHT22;41612;51.994;5.880;2023-04-07T12:47:41;12.30;71.00
55711;DHT22;41612;51.994;5.880;2023-04-07T12:50:07;12.20;70.40
55711;DHT22;41612;51.994;5.880;2023-04-07T12:52:33;12.20;70.30
55711;DHT22;41612;51.994;5.880;2023-04-07T12:55:02;12.20;70.40
55711;DHT22;41612;51.994;5.880;2023-04-07T12:57:29;12.30;70.40
55711;DHT22;41612;51.994;5.880;2023-04-07T13:00:08;12.40;70.30
55711;DHT22;41612;51.994;5.880;2023-04-07T13:02:41;12.50;70.10
55711;DHT22;41612;51.994;5.880;2023-04-07T13:05:08;12.60;70.10
55711;DHT22;41612;51.994;5.880;2023-04-07T13:07:59;12.70;70.10
55711;DHT22;41612;51.994;5.880;2023-04-07T13:10:25;12.70;70.10
55711;DHT22;41612;51.994;5.880;2023-04-07T13:12:51;12.80;69.90
55711;DHT22;41612;51.994;5.880;2023-04-07T13:15:17;12.70;70.00
55711;DHT22;41612;51.994;5.880;2023-04-07T13:17:44;12.70;69.70
55711;DHT22;41612;51.994;5.880;2023-04-07T13:20:11;12.60;69.60
55711;DHT22;41612;51.994;5.880;2023-04-07T13:22:37;12.60;69.60
55711;DHT22;41612;51.994;5.880;2023-04-07T13:25:05;12.60;69.50
55711;DHT22;41612;51.994;5.880;2023-04-07T13:27:33;12.60;69.70
55711;DHT22;41612;51.994;5.880;2023-04-07T13:29:59;12.60;69.40
55711;DHT22;41612;51.994;5.880;2023-04-07T13:32:25;12.60;69.40
55711;DHT22;41612;51.994;5.880;2023-04-07T13:34:52;12.60;70.00
55711;DHT22;41612;51.994;5.880;2023-04-07T13:37:18;12.50;70.00
55711;DHT22;41612;51.994;5.880;2023-04-07T13:39:44;12.50;70.00
55711;DHT22;41612;51.994;5.880;2023-04-07T13:42:12;12.50;70.20
55711;DHT22;41612;51.994;5.880;2023-04-07T13:44:41;12.40;70.40
55711;DHT22;41612;51.994;5.880;2023-04-07T13:47:10;12.40;70.40
55711;DHT22;41612;51.994;5.880;2023-04-07T13:49:35;12.40;70.50
55711;DHT22;41612;51.994;5.880;2023-04-07T13:52:16;12.50;70.20
55711;DHT22;41612;51.994;5.880;2023-04-07T13:54:45;12.50;70.30
55711;DHT22;41612;51.994;5.880;2023-04-07T13:57:11;12.60;70.10
55711;DHT22;41612;51.994;5.880;2023-04-07T13:59:39;12.70;69.70
55711;DHT22;41612;51.994;5.880;2023-04-07T14:02:04;12.80;69.30
55711;DHT22;41612;51.994;5.880;2023-04-07T14:04:30;12.80;69.50
55711;DHT22;41612;51.994;5.880;2023-04-07T14:06:56;12.80;69.20
55711;DHT22;41612;51.994;5.880;2023-04-07T14:09:22;12.90;69.00
55711;DHT22;41612;51.994;5.880;2023-04-07T14:11:48;12.90;69.00
55711;DHT22;41612;51.994;5.880;2023-04-07T14:14:19;13.10;68.70
55711;DHT22;41612;51.994;5.880;2023-04-07T14:16:54;13.30;68.50
55711;DHT22;41612;51.994;5.880;2023-04-07T14:19:29;13.30;67.60
55711;DHT22;41612;51.994;5.880;2023-04-07T14:22:18;13.30;67.30
55711;DHT22;41612;51.994;5.880;2023-04-07T14:24:44;13.30;67.10
55711;DHT22;41612;51.994;5.880;2023-04-07T14:27:13;13.40;67.30
55711;DHT22;41612;51.994;5.880;2023-04-07T14:29:46;13.40;67.50
55711;DHT22;41612;51.994;5.880;2023-04-07T14:32:12;13.60;68.40
55711;DHT22;41612;51.994;5.880;2023-04-07T14:34:38;13.60;68.80
55711;DHT22;41612;51.994;5.880;2023-04-07T14:37:04;13.60;67.50
55711;DHT22;41612;51.994;5.880;2023-04-07T14:39:30;13.50;68.10
55711;DHT22;41612;51.994;5.880;2023-04-07T14:41:59;13.50;68.30
55711;DHT22;41612;51.994;5.880;2023-04-07T14:44:25;13.40;68.80
55711;DHT22;41612;51.994;5.880;2023-04-07T14:46:53;13.30;67.80
55711;DHT22;41612;51.994;5.880;2023-04-07T14:49:21;13.20;68.20
55711;DHT22;41612;51.994;5.880;2023-04-07T14:51:50;13.10;68.90
55711;DHT22;41612;51.994;5.880;2023-04-07T14:54:16;13.00;68.70
55711;DHT22;41612;51.994;5.880;2023-04-07T14:56:42;12.80;69.50
55711;DHT22;41612;51.994;5.880;2023-04-07T14:59:08;12.70;70.10
55711;DHT22;41612;51.994;5.880;2023-04-07T15:01:33;12.70;70.10
55711;DHT22;41612;51.994;5.880;2023-04-07T15:03:59;12.60;70.20
55711;DHT22;41612;51.994;5.880;2023-04-07T15:06:25;12.60;70.30
55711;DHT22;41612;51.994;5.880;2023-04-07T15:08:51;12.70;70.40
55711;DHT22;41612;51.994;5.880;2023-04-07T15:11:17;12.70;70.50
55711;DHT22;41612;51.994;5.880;2023-04-07T15:13:46;12.70;70.20
55711;DHT22;41612;51.994;5.880;2023-04-07T15:16:14;12.80;70.10
55711;DHT22;41612;51.994;5.880;2023-04-07T15:18:44;12.80;69.60
55711;DHT22;41612;51.994;5.880;2023-04-07T15:21:13;12.90;69.50
55711;DHT22;41612;51.994;5.880;2023-04-07T15:23:40;13.00;69.50
55711;DHT22;41612;51.994;5.880;2023-04-07T15:26:07;13.00;69.80
55711;DHT22;41612;51.994;5.880;2023-04-07T15:28:33;13.00;69.40
55711;DHT22;41612;51.994;5.880;2023-04-07T15:30:59;13.00;69.10
55711;DHT22;41612;51.994;5.880;2023-04-07T15:33:26;13.00;69.20
55711;DHT22;41612;51.994;5.880;2023-04-07T15:35:52;12.90;69.30
55711;DHT22;41612;51.994;5.880;2023-04-07T15:38:18;12.90;69.70
55711;DHT22;41612;51.994;5.880;2023-04-07T15:40:44;12.80;70.10
55711;DHT22;41612;51.994;5.880;2023-04-07T15:43:17;12.80;70.10
55711;DHT22;41612;51.994;5.880;2023-04-07T15:45:48;12.70;70.40
55711;DHT22;41612;51.994;5.880;2023-04-07T15:48:16;12.70;70.40
55711;DHT22;41612;51.994;5.880;2023-04-07T15:50:42;12.70;70.50
55711;DHT22;41612;51.994;5.880;2023-04-07T15:53:11;12.60;70.50
55711;DHT22;41612;51.994;5.880;2023-04-07T15:55:39;12.60;70.30
55711;DHT22;41612;51.994;5.880;2023-04-07T15:58:06;12.50;70.50
55711;DHT22;41612;51.994;5.880;2023-04-07T16:00:33;12.40;70.80
55711;DHT22;41612;51.994;5.880;2023-04-07T16:03:01;12.40;70.90
55711;DHT22;41612;51.994;5.880;2023-04-07T16:05:27;12.40;71.00
55711;DHT22;41612;51.994;5.880;2023-04-07T16:07:53;12.40;71.00
55711;DHT22;41612;51.994;5.880;2023-04-07T16:10:18;12.40;70.90
55711;DHT22;41612;51.994;5.880;2023-04-07T16:12:45;12.40;70.90
55711;DHT22;41612;51.994;5.880;2023-04-07T16:15:11;12.30;71.00
55711;DHT22;41612;51.994;5.880;2023-04-07T16:17:41;12.30;71.30
55711;DHT22;41612;51.994;5.880;2023-04-07T16:20:09;12.30;71.50
55711;DHT22;41612;51.994;5.880;2023-04-07T16:22:46;12.30;71.90
55711;DHT22;41612;51.994;5.880;2023-04-07T16:25:15;12.20;72.00
55711;DHT22;41612;51.994;5.880;2023-04-07T16:27:41;12.20;72.00
55711;DHT22;41612;51.994;5.880;2023-04-07T16:30:09;12.10;72.10
55711;DHT22;41612;51.994;5.880;2023-04-07T16:32:38;12.00;72.20
55711;DHT22;41612;51.994;5.880;2023-04-07T16:35:04;11.90;72.40
55711;DHT22;41612;51.994;5.880;2023-04-07T16:37:32;11.90;72.50
55711;DHT22;41612;51.994;5.880;2023-04-07T16:39:59;11.90;72.60
55711;DHT22;41612;51.994;5.880;2023-04-07T16:42:26;11.80;72.80
55711;DHT22;41612;51.994;5.880;2023-04-07T16:44:55;11.80;73.00
55711;DHT22;41612;51.994;5.880;2023-04-07T16:47:26;11.80;73.20
55711;DHT22;41612;51.994;5.880;2023-04-07T16:49:52;11.80;73.20
55711;DHT22;41612;51.994;5.880;2023-04-07T16:52:18;11.80;73.30
55711;DHT22;41612;51.994;5.880;2023-04-07T16:54:48;11.80;73.40
55711;DHT22;41612;51.994;5.880;2023-04-07T16:57:14;11.70;73.50
55711;DHT22;41612;51.994;5.880;2023-04-07T16:59:40;11.70;73.60
55711;DHT22;41612;51.994;5.880;2023-04-07T17:02:13;11.70;73.40
55711;DHT22;41612;51.994;5.880;2023-04-07T17:04:41;11.70;73.40
55711;DHT22;41612;51.994;5.880;2023-04-07T17:07:08;11.80;73.40
55711;DHT22;41612;51.994;5.880;2023-04-07T17:09:52;11.80;73.30
55711;DHT22;41612;51.994;5.880;2023-04-07T17:12:31;11.80;73.20
